sensor_id;sensor_type;location;lat;lon;timestamp;temperature;humidity
22212;DHT22;11275;52.488;13.462;2023-04-09T00:02:11;8.20;99.90
22212;DHT22;11275;52.488;13.462;2023-04-09T00:04:37;8.10;99.90
22212;DHT22;11275;52.488;13.462;2023-04-09T00:07:02;8.10;99.90
22212;DHT22;11275;52.488;13.462;2023-04-09T00:09:28;8.00;99.90
22212;DHT22;11275;52.488;13.462;2023-04-09T00:11:53;8.00;99.90
22212;DHT22;11275;52.488;13.462;2023-04-09T00:14:20;8.10;99.90
22212;DHT22;11275;52.488;13.462;2023-04-09T00:16:46;8.10;99.90
22212;DHT22;11275;52.488;13.462;2023-04-09T00:19:11;8.10;99.90
22212;DHT22;11275;52.488;13.462;2023-04-09T00:21:37;8.10;99.90
22212;DHT22;11275;52.488;13.462;2023-04-09T00:24:03;8.10;99.90
22212;DHT22;11275;52.488;13.462;2023-04-09T00:26:30;8.00;99.90
22212;DHT22;11275;52.488;13.462;2023-04-09T00:28:55;8.00;99.90
22212;DHT22;11275;52.488;13.462;2023-04-09T00:31:21;8.00;99.90
22212;DHT22;11275;52.488;13.462;2023-04-09T00:33:47;8.00;99.90
22212;DHT22;11275;52.488;13.462;2023-04-09T00:36:12;7.90;99.90
22212;DHT22;11275;52.488;13.462;2023-04-09T00:38:38;8.00;99.90
22212;DHT22;11275;52.488;13.462;2023-04-09T00:41:03;7.90;99.90
22212;DHT22;11275;52.488;13.462;2023-04-09T00:43:29;7.90;99.90
22212;DHT22;11275;52.488;13.462;2023-04-09T00:45:55;7.90;99.90
22212;DHT22;11275;52.488;13.462;2023-04-09T00:48:22;7.90;99.90
22212;DHT22;11275;52.488;13.462;2023-04-09T00:50:48;7.90;99.90
22212;DHT22;11275;52.488;13.462;2023-04-09T00:53:13;7.90;99.90
22212;DHT22;11275;52.488;13.462;2023-04-09T00:55:40;7.80;99.90
22212;DHT22;11275;52.488;13.462;2023-04-09T00:58:06;7.80;99.90
22212;DHT22;11275;52.488;13.462;2023-04-09T01:00:32;7.80;99.90
22212;DHT22;11275;52.488;13.462;2023-04-09T01:02:58;7.70;99.90
22212;DHT22;11275;52.488;13.462;2023-04-09T01:11:34;7.60;99.90
22212;DHT22;11275;52.488;13.462;2023-04-09T01:16:33;7.40;99.90
22212;DHT22;11275;52.488;13.462;2023-04-09T01:19:09;7.40;99.90
22212;DHT22;11275;52.488;13.462;2023-04-09T01:21:40;7.40;99.90
22212;DHT22;11275;52.488;13.462;2023-04-09T01:26:57;7.40;99.90
22212;DHT22;11275;52.488;13.462;2023-04-09T01:29:24;7.40;99.90
22212;DHT22;11275;52.488;13.462;2023-04-09T01:31:51;7.30;99.90
22212;DHT22;11275;52.488;13.462;2023-04-09T01:34:19;7.30;99.90
22212;DHT22;11275;52.488;13.462;2023-04-09T01:36:52;7.30;99.90
22212;DHT22;11275;52.488;13.462;2023-04-09T01:39:19;7.30;99.90
22212;DHT22;11275;52.488;13.462;2023-04-09T01:41:46;7.30;99.90
22212;DHT22;11275;52.488;13.462;2023-04-09T01:44:13;7.20;99.90
22212;DHT22;11275;52.488;13.462;2023-04-09T01:46:39;7.20;99.90
22212;DHT22;11275;52.488;13.462;2023-04-09T01:49:05;7.10;99.90
22212;DHT22;11275;52.488;13.462;2023-04-09T01:51:32;7.20;99.90
22212;DHT22;11275;52.488;13.462;2023-04-09T01:53:59;7.10;99.90
22212;DHT22;11275;52.488;13.462;2023-04-09T01:56:24;7.10;99.90
22212;DHT22;11275;52.488;13.462;2023-04-09T01:58:50;7.10;99.90
22212;DHT22;11275;52.488;13.462;2023-04-09T02:01:23;7.10;99.90
22212;DHT22;11275;52.488;13.462;2023-04-09T02:03:55;7.10;99.90
22212;DHT22;11275;52.488;13.462;2023-04-09T02:08:52;7.00;99.90
22212;DHT22;11275;52.488;13.462;2023-04-09T02:11:18;7.00;99.90
22212;DHT22;11275;52.488;13.462;2023-04-09T02:13:46;7.00;99.90
22212;DHT22;11275;52.488;13.462;2023-04-09T02:16:13;6.90;99.90
22212;DHT22;11275;52.488;13.462;2023-04-09T02:18:40;6.90;99.90
22212;DHT22;11275;52.488;13.462;2023-04-09T02:21:06;6.90;99.90
22212;DHT22;11275;52.488;13.462;2023-04-09T02:23:31;6.90;99.90
22212;DHT22;11275;52.488;13.462;2023-04-09T02:25:58;6.90;99.90
22212;DHT22;11275;52.488;13.462;2023-04-09T02:28:24;6.90;99.90
22212;DHT22;11275;52.488;13.462;2023-04-09T02:30:49;6.80;99.90
22212;DHT22;11275;52.488;13.462;2023-04-09T02:33:15;6.80;99.90
22212;DHT22;11275;52.488;13.462;2023-04-09T02:35:40;6.80;99.90
22212;DHT22;11275;52.488;13.462;2023-04-09T02:38:07;6.80;99.90
22212;DHT22;11275;52.488;13.462;2023-04-09T02:40:41;6.70;99.90
22212;DHT22;11275;52.488;13.462;2023-04-09T02:43:07;6.70;99.90
22212;DHT22;11275;52.488;13.462;2023-04-09T02:45:32;6.70;99.90
22212;DHT22;11275;52.488;13.462;2023-04-09T02:47:58;6.70;99.90
22212;DHT22;11275;52.488;13.462;2023-04-09T02:50:23;6.70;99.90
22212;DHT22;11275;52.488;13.462;2023-04-09T02:52:49;6.70;99.90
22212;DHT22;11275;52.488;13.462;2023-04-09T02:55:16;6.70;99.90
22212;DHT22;11275;52.488;13.462;2023-04-09T02:57:42;6.70;99.90
22212;DHT22;11275;52.488;13.462;2023-04-09T03:00:08;6.70;99.90
22212;DHT22;11275;52.488;13.462;2023-04-09T03:02:34;6.70;99.90
22212;DHT22;11275;52.488;13.462;2023-04-09T03:05:00;6.70;99.90
22212;DHT22;11275;52.488;13.462;2023-04-09T03:07:26;6.60;99.90
22212;DHT22;11275;52.488;13.462;2023-04-09T03:09:51;6.50;99.90
22212;DHT22;11275;52.488;13.462;2023-04-09T03:12:17;6.50;99.90
22212;DHT22;11275;52.488;13.462;2023-04-09T03:14:42;6.50;99.90
22212;DHT22;11275;52.488;13.462;2023-04-09T03:17:08;6.50;99.90
22212;DHT22;11275;52.488;13.462;2023-04-09T03:19:33;6.50;99.90
22212;DHT22;11275;52.488;13.462;2023-04-09T03:21:59;6.50;99.90
22212;DHT22;11275;52.488;13.462;2023-04-09T03:24:24;6.50;99.90
22212;DHT22;11275;52.488;13.462;2023-04-09T03:26:50;6.50;99.90
22212;DHT22;11275;52.488;13.462;2023-04-09T03:29:16;6.50;99.90
22212;DHT22;11275;52.488;13.462;2023-04-09T03:31:41;6.50;99.90
22212;DHT22;11275;52.488;13.462;2023-04-09T03:34:07;6.30;99.90
22212;DHT22;11275;52.488;13.462;2023-04-09T03:36:32;6.30;99.90
22212;DHT22;11275;52.488;13.462;2023-04-09T03:38:58;6.30;99.90
22212;DHT22;11275;52.488;13.462;2023-04-09T03:41:25;6.20;99.90
22212;DHT22;11275;52.488;13.462;2023-04-09T03:43:51;6.10;99.90
22212;DHT22;11275;52.488;13.462;2023-04-09T03:46:17;6.10;99.90
22212;DHT22;11275;52.488;13.462;2023-04-09T03:48:43;6.10;99.90
22212;DHT22;11275;52.488;13.462;2023-04-09T03:51:13;6.10;99.90
22212;DHT22;11275;52.488;13.462;2023-04-09T03:53:39;6.10;99.90
22212;DHT22;11275;52.488;13.462;2023-04-09T03:56:05;5.90;99.90
22212;DHT22;11275;52.488;13.462;2023-04-09T03:58:31;5.80;99.90
22212;DHT22;11275;52.488;13.462;2023-04-09T04:00:56;5.90;99.90
22212;DHT22;11275;52.488;13.462;2023-04-09T04:03:22;5.90;99.90
22212;DHT22;11275;52.488;13.462;2023-04-09T04:05:48;5.80;99.90
22212;DHT22;11275;52.488;13.462;2023-04-09T04:08:13;5.70;99.90
22212;DHT22;11275;52.488;13.462;2023-04-09T04:10:39;5.70;99.90
22212;DHT22;11275;52.488;13.462;2023-04-09T04:13:07;5.60;99.90
22212;DHT22;11275;52.488;13.462;2023-04-09T04:15:42;5.60;99.90
22212;DHT22;11275;52.488;13.462;2023-04-09T04:18:09;5.60;99.90
22212;DHT22;11275;52.488;13.462;2023-04-09T04:20:36;5.60;99.90
22212;DHT22;11275;52.488;13.462;2023-04-09T04:23:02;5.60;99.90
22212;DHT22;11275;52.488;13.462;2023-04-09T04:25:30;5.60;99.90
22212;DHT22;11275;52.488;13.462;2023-04-09T04:27:56;5.60;99.90
22212;DHT22;11275;52.488;13.462;2023-04-09T04:30:22;5.60;99.90
22212;DHT22;11275;52.488;13.462;2023-04-09T04:32:57;5.60;99.90
22212;DHT22;11275;52.488;13.462;2023-04-09T04:35:22;5.60;99.90
22212;DHT22;11275;52.488;13.462;2023-04-09T04:37:49;5.60;99.90
22212;DHT22;11275;52.488;13.462;2023-04-09T04:40:17;5.50;99.90
22212;DHT22;11275;52.488;13.462;2023-04-09T04:42:43;5.40;99.90
22212;DHT22;11275;52.488;13.462;2023-04-09T04:45:09;5.30;99.90
22212;DHT22;11275;52.488;13.462;2023-04-09T04:47:34;5.20;99.90
22212;DHT22;11275;52.488;13.462;2023-04-09T04:50:00;5.30;99.90
22212;DHT22;11275;52.488;13.462;2023-04-09T04:52:26;5.30;99.90
22212;DHT22;11275;52.488;13.462;2023-04-09T04:54:51;5.30;99.90
22212;DHT22;11275;52.488;13.462;2023-04-09T04:57:17;5.40;99.90
22212;DHT22;11275;52.488;13.462;2023-04-09T04:59:42;5.40;99.90
22212;DHT22;11275;52.488;13.462;2023-04-09T05:02:08;5.60;99.90
22212;DHT22;11275;52.488;13.462;2023-04-09T05:04:40;5.70;99.90
22212;DHT22;11275;52.488;13.462;2023-04-09T05:07:05;5.70;99.90
22212;DHT22;11275;52.488;13.462;2023-04-09T05:09:31;5.80;99.90
22212;DHT22;11275;52.488;13.462;2023-04-09T05:11:56;5.80;99.90
22212;DHT22;11275;52.488;13.462;2023-04-09T05:14:22;5.90;99.90
22212;DHT22;11275;52.488;13.462;2023-04-09T05:16:49;5.90;99.90
22212;DHT22;11275;52.488;13.462;2023-04-09T05:19:15;6.00;99.90
22212;DHT22;11275;52.488;13.462;2023-04-09T05:21:40;6.10;99.90
22212;DHT22;11275;52.488;13.462;2023-04-09T05:24:06;6.20;99.90
22212;DHT22;11275;52.488;13.462;2023-04-09T05:26:32;6.40;99.90
22212;DHT22;11275;52.488;13.462;2023-04-09T05:28:57;6.50;99.90
22212;DHT22;11275;52.488;13.462;2023-04-09T05:31:23;6.60;99.90
22212;DHT22;11275;52.488;13.462;2023-04-09T05:33:48;6.60;99.90
22212;DHT22;11275;52.488;13.462;2023-04-09T05:36:15;6.70;99.90
22212;DHT22;11275;52.488;13.462;2023-04-09T05:38:42;6.70;99.90
22212;DHT22;11275;52.488;13.462;2023-04-09T05:41:08;6.80;99.90
22212;DHT22;11275;52.488;13.462;2023-04-09T05:43:34;6.70;99.90
22212;DHT22;11275;52.488;13.462;2023-04-09T05:45:59;6.70;99.90
22212;DHT22;11275;52.488;13.462;2023-04-09T05:48:25;6.80;99.90
22212;DHT22;11275;52.488;13.462;2023-04-09T05:50:52;6.90;99.90
22212;DHT22;11275;52.488;13.462;2023-04-09T05:53:18;6.90;99.90
22212;DHT22;11275;52.488;13.462;2023-04-09T05:55:44;6.90;99.90
22212;DHT22;11275;52.488;13.462;2023-04-09T05:58:11;7.00;99.90
22212;DHT22;11275;52.488;13.462;2023-04-09T06:00:37;7.00;99.90
22212;DHT22;11275;52.488;13.462;2023-04-09T06:03:03;7.00;99.90
22212;DHT22;11275;52.488;13.462;2023-04-09T06:05:29;7.10;99.90
22212;DHT22;11275;52.488;13.462;2023-04-09T06:07:55;7.10;99.90
22212;DHT22;11275;52.488;13.462;2023-04-09T06:10:21;7.10;99.90
22212;DHT22;11275;52.488;13.462;2023-04-09T06:12:47;7.00;99.90
22212;DHT22;11275;52.488;13.462;2023-04-09T06:15:12;7.10;99.90
22212;DHT22;11275;52.488;13.462;2023-04-09T06:17:38;7.20;99.90
22212;DHT22;11275;52.488;13.462;2023-04-09T06:20:04;7.30;99.90
22212;DHT22;11275;52.488;13.462;2023-04-09T06:22:30;7.30;99.90
22212;DHT22;11275;52.488;13.462;2023-04-09T06:24:56;7.00;99.90
22212;DHT22;11275;52.488;13.462;2023-04-09T06:27:21;6.90;99.90
22212;DHT22;11275;52.488;13.462;2023-04-09T06:29:47;6.90;99.90
22212;DHT22;11275;52.488;13.462;2023-04-09T06:32:12;7.10;99.90
22212;DHT22;11275;52.488;13.462;2023-04-09T06:34:38;7.30;99.90
22212;DHT22;11275;52.488;13.462;2023-04-09T06:37:04;7.40;99.90
22212;DHT22;11275;52.488;13.462;2023-04-09T06:39:29;7.30;99.90
22212;DHT22;11275;52.488;13.462;2023-04-09T06:41:55;7.40;99.90
22212;DHT22;11275;52.488;13.462;2023-04-09T06:44:21;7.50;99.90
22212;DHT22;11275;52.488;13.462;2023-04-09T06:46:48;7.70;99.90
22212;DHT22;11275;52.488;13.462;2023-04-09T06:49:14;7.70;99.90
22212;DHT22;11275;52.488;13.462;2023-04-09T06:51:40;7.70;99.90
22212;DHT22;11275;52.488;13.462;2023-04-09T06:54:05;7.80;99.90
22212;DHT22;11275;52.488;13.462;2023-04-09T06:56:32;7.90;99.90
22212;DHT22;11275;52.488;13.462;2023-04-09T06:58:57;8.00;99.90
22212;DHT22;11275;52.488;13.462;2023-04-09T07:01:23;7.90;99.90
22212;DHT22;11275;52.488;13.462;2023-04-09T07:03:49;7.90;99.90
22212;DHT22;11275;52.488;13.462;2023-04-09T07:06:15;7.80;99.90
22212;DHT22;11275;52.488;13.462;2023-04-09T07:08:41;7.90;99.90
22212;DHT22;11275;52.488;13.462;2023-04-09T07:11:06;8.00;99.90
22212;DHT22;11275;52.488;13.462;2023-04-09T07:13:32;8.00;99.90
22212;DHT22;11275;52.488;13.462;2023-04-09T07:15:57;8.00;99.90
22212;DHT22;11275;52.488;13.462;2023-04-09T07:18:23;8.00;99.90
22212;DHT22;11275;52.488;13.462;2023-04-09T07:20:49;7.90;99.90
22212;DHT22;11275;52.488;13.462;2023-04-09T07:23:16;8.00;99.90
22212;DHT22;11275;52.488;13.462;2023-04-09T07:25:41;8.00;99.90
22212;DHT22;11275;52.488;13.462;2023-04-09T07:28:07;8.00;99.90
22212;DHT22;11275;52.488;13.462;2023-04-09T07:30:33;8.10;99.90
22212;DHT22;11275;52.488;13.462;2023-04-09T07:32:59;8.10;99.90
22212;DHT22;11275;52.488;13.462;2023-04-09T07:35:25;8.20;99.90
22212;DHT22;11275;52.488;13.462;2023-04-09T07:37:51;8.10;99.90
22212;DHT22;11275;52.488;13.462;2023-04-09T07:40:16;8.10;99.90
22212;DHT22;11275;52.488;13.462;2023-04-09T07:42:42;8.30;99.90
22212;DHT22;11275;52.488;13.462;2023-04-09T07:45:08;8.50;99.90
22212;DHT22;11275;52.488;13.462;2023-04-09T07:47:34;8.50;99.90
22212;DHT22;11275;52.488;13.462;2023-04-09T07:49:59;8.50;99.90
22212;DHT22;11275;52.488;13.462;2023-04-09T07:52:25;8.80;99.90
22212;DHT22;11275;52.488;13.462;2023-04-09T07:54:51;8.90;99.90
22212;DHT22;11275;52.488;13.462;2023-04-09T07:57:17;8.90;99.90
22212;DHT22;11275;52.488;13.462;2023-04-09T07:59:42;8.90;99.90
22212;DHT22;11275;52.488;13.462;2023-04-09T08:02:08;8.90;99.90
22212;DHT22;11275;52.488;13.462;2023-04-09T08:04:33;9.00;99.90
22212;DHT22;11275;52.488;13.462;2023-04-09T08:06:59;9.10;99.90
22212;DHT22;11275;52.488;13.462;2023-04-09T08:09:25;9.20;99.90
22212;DHT22;11275;52.488;13.462;2023-04-09T08:11:50;9.30;99.90
22212;DHT22;11275;52.488;13.462;2023-04-09T08:14:17;9.50;99.90
22212;DHT22;11275;52.488;13.462;2023-04-09T08:16:45;9.60;99.90
22212;DHT22;11275;52.488;13.462;2023-04-09T08:19:11;9.60;99.90
22212;DHT22;11275;52.488;13.462;2023-04-09T08:21:38;9.70;99.90
22212;DHT22;11275;52.488;13.462;2023-04-09T08:24:07;9.60;99.90
22212;DHT22;11275;52.488;13.462;2023-04-09T08:26:38;9.40;99.90
22212;DHT22;11275;52.488;13.462;2023-04-09T08:29:04;9.20;99.90
22212;DHT22;11275;52.488;13.462;2023-04-09T08:31:30;9.00;99.90
22212;DHT22;11275;52.488;13.462;2023-04-09T08:33:56;9.10;99.90
22212;DHT22;11275;52.488;13.462;2023-04-09T08:36:21;9.10;99.90
22212;DHT22;11275;52.488;13.462;2023-04-09T08:38:47;9.20;99.90
22212;DHT22;11275;52.488;13.462;2023-04-09T08:41:21;9.50;99.90
22212;DHT22;11275;52.488;13.462;2023-04-09T08:43:47;9.70;99.90
22212;DHT22;11275;52.488;13.462;2023-04-09T08:46:14;10.00;99.90
22212;DHT22;11275;52.488;13.462;2023-04-09T08:48:45;9.80;99.90
22212;DHT22;11275;52.488;13.462;2023-04-09T08:51:16;9.80;99.90
22212;DHT22;11275;52.488;13.462;2023-04-09T08:53:47;10.00;99.90
22212;DHT22;11275;52.488;13.462;2023-04-09T08:56:15;10.10;99.90
22212;DHT22;11275;52.488;13.462;2023-04-09T08:58:45;10.30;99.90
22212;DHT22;11275;52.488;13.462;2023-04-09T09:04:07;10.40;99.90
22212;DHT22;11275;52.488;13.462;2023-04-09T09:11:33;9.80;99.90
22212;DHT22;11275;52.488;13.462;2023-04-09T09:14:01;9.60;99.90
22212;DHT22;11275;52.488;13.462;2023-04-09T09:16:26;9.30;99.90
22212;DHT22;11275;52.488;13.462;2023-04-09T09:18:52;9.30;99.90
22212;DHT22;11275;52.488;13.462;2023-04-09T09:21:18;9.30;99.90
22212;DHT22;11275;52.488;13.462;2023-04-09T09:23:44;9.20;99.90
22212;DHT22;11275;52.488;13.462;2023-04-09T09:26:14;9.20;99.90
22212;DHT22;11275;52.488;13.462;2023-04-09T09:28:47;9.20;99.90
22212;DHT22;11275;52.488;13.462;2023-04-09T09:31:13;9.30;99.90
22212;DHT22;11275;52.488;13.462;2023-04-09T09:33:39;9.20;99.90
22212;DHT22;11275;52.488;13.462;2023-04-09T09:36:05;9.20;99.90
22212;DHT22;11275;52.488;13.462;2023-04-09T09:38:49;9.10;99.90
22212;DHT22;11275;52.488;13.462;2023-04-09T09:41:16;9.30;99.90
22212;DHT22;11275;52.488;13.462;2023-04-09T09:43:42;9.40;99.90
22212;DHT22;11275;52.488;13.462;2023-04-09T09:46:09;9.40;99.90
22212;DHT22;11275;52.488;13.462;2023-04-09T09:48:35;9.50;99.90
22212;DHT22;11275;52.488;13.462;2023-04-09T09:51:02;9.60;99.90
22212;DHT22;11275;52.488;13.462;2023-04-09T09:53:35;9.60;99.90
22212;DHT22;11275;52.488;13.462;2023-04-09T09:56:01;9.50;99.90
22212;DHT22;11275;52.488;13.462;2023-04-09T09:58:51;9.70;99.90
22212;DHT22;11275;52.488;13.462;2023-04-09T10:01:19;9.90;99.90
22212;DHT22;11275;52.488;13.462;2023-04-09T10:03:46;10.20;99.90
22212;DHT22;11275;52.488;13.462;2023-04-09T10:06:13;10.40;99.90
22212;DHT22;11275;52.488;13.462;2023-04-09T10:08:41;10.60;99.90
22212;DHT22;11275;52.488;13.462;2023-04-09T10:11:07;10.80;99.90
22212;DHT22;11275;52.488;13.462;2023-04-09T10:13:36;10.70;99.90
22212;DHT22;11275;52.488;13.462;2023-04-09T10:16:03;10.50;99.90
22212;DHT22;11275;52.488;13.462;2023-04-09T10:18:30;10.20;99.90
22212;DHT22;11275;52.488;13.462;2023-04-09T10:21:06;10.20;99.90
22212;DHT22;11275;52.488;13.462;2023-04-09T10:23:38;10.30;99.90
22212;DHT22;11275;52.488;13.462;2023-04-09T10:26:05;10.30;99.90
22212;DHT22;11275;52.488;13.462;2023-04-09T10:28:31;10.30;99.90
22212;DHT22;11275;52.488;13.462;2023-04-09T10:30:57;10.40;99.90
22212;DHT22;11275;52.488;13.462;2023-04-09T10:33:24;10.60;99.90
22212;DHT22;11275;52.488;13.462;2023-04-09T10:35:54;10.50;99.90
22212;DHT22;11275;52.488;13.462;2023-04-09T10:41:11;10.50;99.90
22212;DHT22;11275;52.488;13.462;2023-04-09T10:43:38;10.60;99.90
22212;DHT22;11275;52.488;13.462;2023-04-09T10:46:23;10.50;99.90
22212;DHT22;11275;52.488;13.462;2023-04-09T10:49:07;10.60;99.90
22212;DHT22;11275;52.488;13.462;2023-04-09T10:51:37;10.70;99.90
22212;DHT22;11275;52.488;13.462;2023-04-09T10:54:49;10.60;99.90
22212;DHT22;11275;52.488;13.462;2023-04-09T10:57:09;10.40;99.90
22212;DHT22;11275;52.488;13.462;2023-04-09T10:59:43;10.40;99.90
22212;DHT22;11275;52.488;13.462;2023-04-09T11:02:26;10.50;99.90
22212;DHT22;11275;52.488;13.462;2023-04-09T11:07:23;10.40;99.90
22212;DHT22;11275;52.488;13.462;2023-04-09T11:09:49;10.50;99.90
22212;DHT22;11275;52.488;13.462;2023-04-09T11:12:15;10.50;99.90
22212;DHT22;11275;52.488;13.462;2023-04-09T11:14:41;10.50;99.90
22212;DHT22;11275;52.488;13.462;2023-04-09T11:17:06;10.40;99.90
22212;DHT22;11275;52.488;13.462;2023-04-09T11:19:35;10.40;99.90
22212;DHT22;11275;52.488;13.462;2023-04-09T11:22:05;10.50;99.90
22212;DHT22;11275;52.488;13.462;2023-04-09T11:24:40;10.50;99.90
22212;DHT22;11275;52.488;13.462;2023-04-09T11:27:06;10.60;99.90
22212;DHT22;11275;52.488;13.462;2023-04-09T11:29:34;10.80;99.90
22212;DHT22;11275;52.488;13.462;2023-04-09T11:31:59;10.90;99.90
22212;DHT22;11275;52.488;13.462;2023-04-09T11:34:28;11.10;99.90
22212;DHT22;11275;52.488;13.462;2023-04-09T11:36:54;11.00;99.90
22212;DHT22;11275;52.488;13.462;2023-04-09T11:39:19;10.90;99.90
22212;DHT22;11275;52.488;13.462;2023-04-09T11:41:45;10.80;99.90
22212;DHT22;11275;52.488;13.462;2023-04-09T11:44:11;10.70;99.90
22212;DHT22;11275;52.488;13.462;2023-04-09T11:46:37;10.70;99.90
22212;DHT22;11275;52.488;13.462;2023-04-09T11:49:03;10.80;99.90
22212;DHT22;11275;52.488;13.462;2023-04-09T11:51:29;10.80;99.90
22212;DHT22;11275;52.488;13.462;2023-04-09T11:54:00;10.80;99.90
22212;DHT22;11275;52.488;13.462;2023-04-09T11:56:29;10.80;99.90
22212;DHT22;11275;52.488;13.462;2023-04-09T11:58:56;11.10;99.90
22212;DHT22;11275;52.488;13.462;2023-04-09T12:01:21;11.30;99.90
22212;DHT22;11275;52.488;13.462;2023-04-09T12:03:54;11.50;99.90
22212;DHT22;11275;52.488;13.462;2023-04-09T12:06:21;11.40;99.90
22212;DHT22;11275;52.488;13.462;2023-04-09T12:08:54;11.20;99.90
22212;DHT22;11275;52.488;13.462;2023-04-09T12:11:19;11.40;99.90
22212;DHT22;11275;52.488;13.462;2023-04-09T12:14:00;11.40;99.90
22212;DHT22;11275;52.488;13.462;2023-04-09T12:16:29;11.30;99.90
22212;DHT22;11275;52.488;13.462;2023-04-09T12:19:02;11.20;99.90
22212;DHT22;11275;52.488;13.462;2023-04-09T12:21:45;11.20;99.90
22212;DHT22;11275;52.488;13.462;2023-04-09T12:24:12;11.20;99.90
22212;DHT22;11275;52.488;13.462;2023-04-09T12:26:37;11.30;99.90
22212;DHT22;11275;52.488;13.462;2023-04-09T12:29:03;11.30;99.90
22212;DHT22;11275;52.488;13.462;2023-04-09T12:31:29;11.40;99.90
22212;DHT22;11275;52.488;13.462;2023-04-09T12:33:54;11.50;99.90
22212;DHT22;11275;52.488;13.462;2023-04-09T12:36:20;11.60;99.90
22212;DHT22;11275;52.488;13.462;2023-04-09T12:38:46;11.60;99.90
22212;DHT22;11275;52.488;13.462;2023-04-09T12:41:12;11.60;99.90
22212;DHT22;11275;52.488;13.462;2023-04-09T12:43:38;11.60;99.90
22212;DHT22;11275;52.488;13.462;2023-04-09T12:46:04;11.60;99.90
22212;DHT22;11275;52.488;13.462;2023-04-09T12:48:30;11.60;99.90
22212;DHT22;11275;52.488;13.462;2023-04-09T12:50:55;11.60;99.90
22212;DHT22;11275;52.488;13.462;2023-04-09T12:53:21;11.80;99.90
22212;DHT22;11275;52.488;13.462;2023-04-09T12:55:49;12.00;99.90
22212;DHT22;11275;52.488;13.462;2023-04-09T12:58:15;12.10;99.90
22212;DHT22;11275;52.488;13.462;2023-04-09T13:00:40;12.00;99.90
22212;DHT22;11275;52.488;13.462;2023-04-09T13:03:06;11.90;99.90
22212;DHT22;11275;52.488;13.462;2023-04-09T13:05:32;12.00;99.90
22212;DHT22;11275;52.488;13.462;2023-04-09T13:08:00;12.20;99.90
22212;DHT22;11275;52.488;13.462;2023-04-09T13:10:26;12.20;99.90
22212;DHT22;11275;52.488;13.462;2023-04-09T13:12:52;12.40;99.90
22212;DHT22;11275;52.488;13.462;2023-04-09T13:15:18;12.60;99.90
22212;DHT22;11275;52.488;13.462;2023-04-09T13:17:43;12.60;99.90
22212;DHT22;11275;52.488;13.462;2023-04-09T13:20:09;12.70;99.90
22212;DHT22;11275;52.488;13.462;2023-04-09T13:22:35;12.80;99.90
22212;DHT22;11275;52.488;13.462;2023-04-09T13:25:02;12.90;99.90
22212;DHT22;11275;52.488;13.462;2023-04-09T13:27:28;12.80;99.90
22212;DHT22;11275;52.488;13.462;2023-04-09T13:29:53;12.70;99.90
22212;DHT22;11275;52.488;13.462;2023-04-09T13:32:20;12.70;99.90
22212;DHT22;11275;52.488;13.462;2023-04-09T13:34:46;12.70;99.90
22212;DHT22;11275;52.488;13.462;2023-04-09T13:37:12;12.70;99.90
22212;DHT22;11275;52.488;13.462;2023-04-09T13:39:37;12.90;99.90
22212;DHT22;11275;52.488;13.462;2023-04-09T13:42:03;12.90;99.90
22212;DHT22;11275;52.488;13.462;2023-04-09T13:44:28;12.90;99.90
22212;DHT22;11275;52.488;13.462;2023-04-09T13:46:54;12.90;99.90
22212;DHT22;11275;52.488;13.462;2023-04-09T13:49:20;13.00;99.90
22212;DHT22;11275;52.488;13.462;2023-04-09T13:51:47;13.10;99.90
22212;DHT22;11275;52.488;13.462;2023-04-09T13:54:12;13.30;99.90
22212;DHT22;11275;52.488;13.462;2023-04-09T13:56:38;13.30;99.90
22212;DHT22;11275;52.488;13.462;2023-04-09T13:59:04;13.30;99.90
22212;DHT22;11275;52.488;13.462;2023-04-09T14:01:30;13.20;99.90
22212;DHT22;11275;52.488;13.462;2023-04-09T14:03:56;13.30;99.90
22212;DHT22;11275;52.488;13.462;2023-04-09T14:06:22;13.30;99.90
22212;DHT22;11275;52.488;13.462;2023-04-09T14:08:47;13.40;99.90
22212;DHT22;11275;52.488;13.462;2023-04-09T14:11:13;13.50;99.90
22212;DHT22;11275;52.488;13.462;2023-04-09T14:13:40;13.70;99.90
22212;DHT22;11275;52.488;13.462;2023-04-09T14:16:07;13.70;99.90
22212;DHT22;11275;52.488;13.462;2023-04-09T14:18:32;13.80;99.90
22212;DHT22;11275;52.488;13.462;2023-04-09T14:20:58;13.80;99.90
22212;DHT22;11275;52.488;13.462;2023-04-09T14:23:27;13.80;99.90
22212;DHT22;11275;52.488;13.462;2023-04-09T14:25:53;13.90;99.90
22212;DHT22;11275;52.488;13.462;2023-04-09T14:28:21;14.00;99.90
22212;DHT22;11275;52.488;13.462;2023-04-09T14:30:46;14.00;99.90
22212;DHT22;11275;52.488;13.462;2023-04-09T14:33:12;14.10;99.90
22212;DHT22;11275;52.488;13.462;2023-04-09T14:35:38;14.10;99.90
22212;DHT22;11275;52.488;13.462;2023-04-09T14:38:03;14.10;99.90
22212;DHT22;11275;52.488;13.462;2023-04-09T14:40:30;14.20;99.90
22212;DHT22;11275;52.488;13.462;2023-04-09T14:42:59;14.30;99.90
22212;DHT22;11275;52.488;13.462;2023-04-09T14:45:25;14.50;99.90
22212;DHT22;11275;52.488;13.462;2023-04-09T14:47:51;14.30;99.90
22212;DHT22;11275;52.488;13.462;2023-04-09T14:50:16;14.40;99.90
22212;DHT22;11275;52.488;13.462;2023-04-09T14:52:44;14.50;99.90
22212;DHT22;11275;52.488;13.462;2023-04-09T14:55:10;14.60;99.90
22212;DHT22;11275;52.488;13.462;2023-04-09T14:57:39;14.60;99.90
22212;DHT22;11275;52.488;13.462;2023-04-09T15:00:07;14.60;99.90
22212;DHT22;11275;52.488;13.462;2023-04-09T15:02:33;14.70;99.90
22212;DHT22;11275;52.488;13.462;2023-04-09T15:05:00;14.50;99.90
22212;DHT22;11275;52.488;13.462;2023-04-09T15:07:26;14.60;99.90
22212;DHT22;11275;52.488;13.462;2023-04-09T15:09:52;14.70;99.90
22212;DHT22;11275;52.488;13.462;2023-04-09T15:12:17;14.80;99.90
22212;DHT22;11275;52.488;13.462;2023-04-09T15:14:43;14.80;99.90
22212;DHT22;11275;52.488;13.462;2023-04-09T15:17:09;14.90;99.90
22212;DHT22;11275;52.488;13.462;2023-04-09T15:19:34;14.80;99.90
22212;DHT22;11275;52.488;13.462;2023-04-09T15:22:00;14.80;99.90
22212;DHT22;11275;52.488;13.462;2023-04-09T15:24:26;14.70;99.90
22212;DHT22;11275;52.488;13.462;2023-04-09T15:26:51;14.70;99.90
22212;DHT22;11275;52.488;13.462;2023-04-09T15:29:17;14.60;99.90
22212;DHT22;11275;52.488;13.462;2023-04-09T15:31:43;14.70;99.90
22212;DHT22;11275;52.488;13.462;2023-04-09T15:34:08;14.90;99.90
22212;DHT22;11275;52.488;13.462;2023-04-09T15:36:34;14.90;99.90
22212;DHT22;11275;52.488;13.462;2023-04-09T15:39:02;15.00;99.90
22212;DHT22;11275;52.488;13.462;2023-04-09T15:41:28;15.10;99.90
22212;DHT22;11275;52.488;13.462;2023-04-09T15:43:56;15.10;99.90
22212;DHT22;11275;52.488;13.462;2023-04-09T15:46:22;15.10;99.90
22212;DHT22;11275;52.488;13.462;2023-04-09T15:48:48;15.10;99.90
22212;DHT22;11275;52.488;13.462;2023-04-09T15:51:14;15.10;99.90